Time;durP1;ratioP1;P1;durP2;ratioP2;P2;SDS_P1;SDS_P2;PMS_P1;PMS_P2;Temp;Humidity;BMP_temperature;BMP_pressure;BME280_temperature;BME280_humidity;BME280_pressure;Samples;Min_cycle;Max_cycle;Signal;HPM_P1;HPM_P2
2022/09/21 00:01:04;;;;;;;;;;;;;;;14.60;55.26;99882.75;4492395;31;34638;-64
2022/09/21 00:03:31;;;;;;;;;;;;;;;14.60;55.22;99882.75;4477858;31;31987;-63
2022/09/21 00:06:05;;;;;;;;;;;;;;;14.70;54.70;99881.91;4490103;31;35247;-63
2022/09/21 00:08:33;;;;;;;;;;;;;;;14.33;55.81;99890.56;4485771;31;34161;-63
2022/09/21 00:11:01;;;;;;;;;;;;;;;14.05;56.32;99886.75;4490113;31;34130;-63
2022/09/21 00:13:28;;;;;;;;;;;;;;;14.34;55.90;99884.19;4496010;31;34430;-63
2022/09/21 00:15:56;;;;;;;;;;;;;;;14.35;55.73;99893.94;4494732;31;34387;-63
2022/09/21 00:18:23;;;;;;;;;;;;;;;14.49;55.19;99890.91;4485676;31;32975;-64
2022/09/21 00:20:54;;;;;;;;;;;;;;;14.35;55.42;99893.94;4488758;31;34992;-63
2022/09/21 00:23:22;;;;;;;;;;;;;;;14.26;55.54;99892.09;4499155;31;33182;-64
2022/09/21 00:25:49;;;;;;;;;;;;;;;14.43;55.42;99886.06;4486884;31;34407;-63
2022/09/21 00:28:17;;;;;;;;;;;;;;;14.60;55.08;99880.03;4486821;31;33938;-65
2022/09/21 00:30:44;;;;;;;;;;;;;;;14.27;55.85;99888.41;4471936;31;34685;-65
2022/09/21 00:33:11;;;;;;;;;;;;;;;14.62;54.99;99888.84;4500578;31;33092;-63
2022/09/21 00:35:40;;;;;;;;;;;;;;;14.27;55.51;99891.09;4494869;31;33488;-63
2022/09/21 00:38:07;;;;;;;;;;;;;;;14.40;55.38;99889.88;4496785;31;35644;-63
2022/09/21 00:40:35;;;;;;;;;;;;;;;14.44;55.22;99888.63;4493245;31;32882;-63
2022/09/21 00:43:12;;;;;;;;;;;;;;;14.50;55.44;99886.37;4500556;31;31970;-63
2022/09/21 00:45:40;;;;;;;;;;;;;;;14.51;55.55;99891.66;4485101;31;33955;-63
2022/09/21 00:48:07;;;;;;;;;;;;;;;14.64;55.37;99883.34;4479667;31;34440;-63
2022/09/21 00:50:35;;;;;;;;;;;;;;;14.68;54.70;99885.63;4494251;31;34251;-63
2022/09/21 00:53:02;;;;;;;;;;;;;;;14.51;54.67;99888.09;4485168;31;33253;-63
2022/09/21 00:55:33;;;;;;;;;;;;;;;14.68;54.21;99895.53;4477693;31;32738;-65
2022/09/21 00:58:02;;;;;;;;;;;;;;;14.31;55.12;99898.75;4475032;31;34279;-63
2022/09/21 01:00:29;;;;;;;;;;;;;;;14.49;54.46;99892.75;4474908;31;35539;-63
2022/09/21 01:03:00;;;;;;;;;;;;;;;14.53;54.11;99897.75;4488619;31;33295;-63
2022/09/21 01:05:27;;;;;;;;;;;;;;;14.56;54.11;99900.19;4484716;31;34386;-65
2022/09/21 01:07:56;;;;;;;;;;;;;;;14.53;54.22;99899.59;4492113;31;34399;-64
2022/09/21 01:10:24;;;;;;;;;;;;;;;14.60;53.70;99900.75;4469974;31;34076;-64
2022/09/21 01:13:12;;;;;;;;;;;;;;;14.34;54.52;99909.25;4484514;31;32919;-63
2022/09/21 01:16:19;;;;;;;;;;;;;;;14.19;55.48;99907.94;4475292;31;32995;-63
2022/09/21 01:18:50;;;;;;;;;;;;;;;14.44;54.99;99903.91;4433108;32;34367;-62
2022/09/21 01:21:19;;;;;;;;;;;;;;;14.62;54.04;99902.31;4419535;32;33913;-63
2022/09/21 01:24:01;;;;;;;;;;;;;;;14.63;53.58;99908.56;4457277;31;33829;-64
2022/09/21 01:26:35;;;;;;;;;;;;;;;14.30;54.34;99910.53;4487611;31;35145;-63
2022/09/21 01:29:15;;;;;;;;;;;;;;;14.40;54.19;99914.09;4482728;31;34879;-63
2022/09/21 01:31:54;;;;;;;;;;;;;;;14.42;54.13;99911.31;4475885;31;33799;-63
2022/09/21 01:34:33;;;;;;;;;;;;;;;14.13;54.96;99906.62;4469841;31;33182;-64
2022/09/21 01:37:02;;;;;;;;;;;;;;;14.39;54.32;99908.87;4486966;31;33760;-65
2022/09/21 01:39:29;;;;;;;;;;;;;;;14.41;54.32;99905.06;4471388;32;34362;-65
2022/09/21 01:41:56;;;;;;;;;;;;;;;14.26;54.24;99905.56;4482425;31;35228;-63
2022/09/21 01:44:26;;;;;;;;;;;;;;;13.95;55.68;99918.97;4482284;31;33377;-62
2022/09/21 01:46:53;;;;;;;;;;;;;;;13.55;56.73;99908.94;4489207;31;34433;-64
2022/09/21 01:49:22;;;;;;;;;;;;;;;14.07;55.22;99914.38;4494501;31;34438;-63
2022/09/21 01:51:50;;;;;;;;;;;;;;;14.29;54.96;99916.06;4476360;31;34273;-63
2022/09/21 01:54:20;;;;;;;;;;;;;;;14.46;54.40;99918.09;4481904;31;33273;-63
2022/09/21 01:57:08;;;;;;;;;;;;;;;14.57;53.80;99912.66;4486994;31;33002;-63
2022/09/21 01:59:36;;;;;;;;;;;;;;;14.37;54.80;99921.59;4481552;31;34567;-64
2022/09/21 02:02:14;;;;;;;;;;;;;;;14.38;54.59;99920.62;4487840;31;35297;-62
2022/09/21 02:04:41;;;;;;;;;;;;;;;14.51;54.16;99906.94;4486700;31;32876;-62
2022/09/21 02:07:09;;;;;;;;;;;;;;;14.45;54.79;99927.19;4475729;31;32797;-62
2022/09/21 02:09:36;;;;;;;;;;;;;;;14.44;53.80;99920.97;4490923;31;33054;-63
2022/09/21 02:12:04;;;;;;;;;;;;;;;14.61;53.30;99924.03;4485691;31;34147;-63
2022/09/21 02:14:32;;;;;;;;;;;;;;;14.64;53.51;99916.53;4487171;31;33301;-63
2022/09/21 02:17:06;;;;;;;;;;;;;;;14.71;53.30;99921.38;4481382;31;34271;-63
2022/09/21 02:19:55;;;;;;;;;;;;;;;14.74;53.25;99918.41;4486549;31;34146;-63
2022/09/21 02:22:30;;;;;;;;;;;;;;;14.50;54.32;99922.22;4478053;31;32635;-63
2022/09/21 02:25:04;;;;;;;;;;;;;;;14.24;55.10;99927.22;4481031;31;33420;-63
2022/09/21 02:27:44;;;;;;;;;;;;;;;14.27;55.24;99926.09;4482471;31;33908;-63
2022/09/21 02:30:13;;;;;;;;;;;;;;;14.63;54.24;99930.97;4474087;31;34359;-64
2022/09/21 02:32:47;;;;;;;;;;;;;;;14.63;54.88;99930.13;4489749;31;33768;-63
2022/09/21 02:35:30;;;;;;;;;;;;;;;14.55;54.71;99932.66;4491207;31;34722;-63
2022/09/21 02:38:02;;;;;;;;;;;;;;;14.78;54.34;99927.91;4484806;31;33867;-63
2022/09/21 02:40:30;;;;;;;;;;;;;;;14.72;54.04;99928.44;4478468;31;36542;-62
2022/09/21 02:42:58;;;;;;;;;;;;;;;14.59;54.12;99929.53;4488617;31;35430;-63
2022/09/21 02:45:26;;;;;;;;;;;;;;;13.96;55.79;99928.75;4490601;31;33354;-62
2022/09/21 02:48:02;;;;;;;;;;;;;;;14.32;55.29;99934.66;4485393;31;34144;-63
2022/09/21 02:50:55;;;;;;;;;;;;;;;14.48;54.50;99932.31;4476848;31;35260;-67
2022/09/21 02:53:24;;;;;;;;;;;;;;;14.12;55.25;99931.81;4486652;31;33032;-64
2022/09/21 02:55:52;;;;;;;;;;;;;;;14.03;55.57;99932.63;4475960;31;31856;-64
2022/09/21 02:58:23;;;;;;;;;;;;;;;14.49;54.04;99934.00;4471143;31;33985;-64
2022/09/21 03:00:50;;;;;;;;;;;;;;;13.97;56.07;99931.31;4472481;31;34256;-64
2022/09/21 03:03:19;;;;;;;;;;;;;;;13.87;55.72;99937.63;4470697;31;34042;-64
2022/09/21 03:05:47;;;;;;;;;;;;;;;14.12;56.31;99934.50;4485100;31;34354;-63
2022/09/21 03:08:15;;;;;;;;;;;;;;;14.31;54.98;99941.84;4484495;31;34078;-64
2022/09/21 03:10:42;;;;;;;;;;;;;;;14.39;54.48;99943.88;4483929;31;35197;-64
2022/09/21 03:13:09;;;;;;;;;;;;;;;14.05;55.37;99946.78;4481622;31;34031;-64
2022/09/21 03:15:37;;;;;;;;;;;;;;;13.81;55.93;99939.00;4483455;31;31444;-64
2022/09/21 03:18:06;;;;;;;;;;;;;;;14.01;56.79;99948.06;4481093;31;33955;-65
2022/09/21 03:20:34;;;;;;;;;;;;;;;13.91;57.07;99955.22;4486717;31;34209;-64
2022/09/21 03:23:02;;;;;;;;;;;;;;;14.36;55.79;99953.06;4481863;31;33844;-63
2022/09/21 03:25:29;;;;;;;;;;;;;;;14.38;55.41;99958.31;4482542;31;32169;-64
2022/09/21 03:27:57;;;;;;;;;;;;;;;14.40;55.53;99951.81;4478637;31;32406;-64
2022/09/21 03:30:25;;;;;;;;;;;;;;;14.29;55.64;99962.69;4483916;31;34978;-64
2022/09/21 03:32:52;;;;;;;;;;;;;;;14.51;54.33;99959.00;4485722;31;34794;-64
2022/09/21 03:35:20;;;;;;;;;;;;;;;14.27;54.86;99956.56;4486384;31;33215;-64
2022/09/21 03:37:48;;;;;;;;;;;;;;;14.68;53.82;99949.44;4482863;31;33927;-64
2022/09/21 03:40:15;;;;;;;;;;;;;;;14.79;53.41;99956.53;4480658;31;34032;-65
2022/09/21 03:42:43;;;;;;;;;;;;;;;14.65;53.65;99957.78;4486265;31;32736;-65
2022/09/21 03:45:10;;;;;;;;;;;;;;;14.77;53.20;99956.69;4480409;31;33054;-65
2022/09/21 03:47:38;;;;;;;;;;;;;;;14.87;52.90;99951.34;4481207;31;35323;-64
2022/09/21 03:50:06;;;;;;;;;;;;;;;14.83;53.10;99961.53;4486058;31;34063;-63
2022/09/21 03:52:37;;;;;;;;;;;;;;;14.99;52.93;99963.72;4483964;31;34053;-65
2022/09/21 03:55:05;;;;;;;;;;;;;;;14.97;53.26;99963.00;4481261;31;33487;-66
2022/09/21 03:57:33;;;;;;;;;;;;;;;14.95;52.60;99967.66;4483838;31;33657;-64
2022/09/21 04:00:02;;;;;;;;;;;;;;;14.89;53.05;99963.69;4479661;31;34196;-62
2022/09/21 04:02:30;;;;;;;;;;;;;;;14.75;52.85;99968.59;4477684;31;32709;-62
2022/09/21 04:04:58;;;;;;;;;;;;;;;14.85;52.10;99969.47;4480625;31;34236;-63
2022/09/21 04:07:29;;;;;;;;;;;;;;;14.75;52.74;99972.13;4484574;31;33485;-64
2022/09/21 04:09:56;;;;;;;;;;;;;;;14.89;52.34;99966.38;4483733;31;34714;-63
2022/09/21 04:12:23;;;;;;;;;;;;;;;14.61;52.61;99967.97;4489717;31;33563;-64
2022/09/21 04:14:50;;;;;;;;;;;;;;;14.54;53.37;99974.00;4484812;31;34481;-64
2022/09/21 04:17:18;;;;;;;;;;;;;;;14.64;52.73;99974.94;4480893;31;33760;-64
2022/09/21 04:19:46;;;;;;;;;;;;;;;14.70;52.67;99979.75;4487511;31;34516;-64
2022/09/21 04:22:13;;;;;;;;;;;;;;;14.63;52.36;99983.97;4474054;31;33255;-65
2022/09/21 04:24:41;;;;;;;;;;;;;;;14.63;52.82;99986.69;4482239;31;32056;-64
2022/09/21 04:27:08;;;;;;;;;;;;;;;14.21;53.92;99987.56;4480055;31;32904;-63
2022/09/21 04:29:36;;;;;;;;;;;;;;;14.39;53.47;99995.03;4480980;31;34041;-64
2022/09/21 04:32:03;;;;;;;;;;;;;;;14.06;54.62;99988.00;4480346;31;34523;-64
2022/09/21 04:34:31;;;;;;;;;;;;;;;13.89;54.93;99993.00;4480955;31;33166;-65
2022/09/21 04:36:58;;;;;;;;;;;;;;;14.05;54.42;99989.84;4487978;31;33206;-64
2022/09/21 04:39:25;;;;;;;;;;;;;;;13.54;56.14;99987.88;4482585;31;33897;-63
2022/09/21 04:41:53;;;;;;;;;;;;;;;13.64;56.07;99985.28;4481613;31;32840;-64
2022/09/21 04:44:20;;;;;;;;;;;;;;;13.88;55.26;99995.84;4490197;31;34188;-64
2022/09/21 04:46:48;;;;;;;;;;;;;;;13.85;55.87;99999.63;4484134;31;34938;-63
2022/09/21 04:49:15;;;;;;;;;;;;;;;13.66;56.00;99999.47;4484776;31;35543;-63
2022/09/21 04:51:42;;;;;;;;;;;;;;;13.32;56.58;99993.34;4484989;31;34294;-64
2022/09/21 04:54:09;;;;;;;;;;;;;;;13.56;56.97;99994.00;4484500;31;34053;-63
2022/09/21 04:56:37;;;;;;;;;;;;;;;13.17;57.22;99996.28;4482613;31;34237;-63
2022/09/21 04:59:04;;;;;;;;;;;;;;;13.39;57.12;100005.31;4479793;31;32976;-63
2022/09/21 05:01:31;;;;;;;;;;;;;;;13.29;56.93;100007.91;4479729;31;35307;-65
2022/09/21 05:04:01;;;;;;;;;;;;;;;12.58;59.11;100012.66;4476978;31;32305;-63
2022/09/21 05:06:29;;;;;;;;;;;;;;;12.62;59.58;100015.97;4483592;31;35112;-63
2022/09/21 05:11:42;;;;;;;;;;;;;;;13.46;56.66;100012.72;4478017;31;34698;-63
2022/09/21 05:14:09;;;;;;;;;;;;;;;13.48;56.55;100007.22;4480967;31;33137;-65
2022/09/21 05:16:37;;;;;;;;;;;;;;;12.86;58.73;100022.06;4486893;31;33005;-64
2022/09/21 05:19:04;;;;;;;;;;;;;;;12.82;58.97;100020.63;4477549;31;34524;-63
2022/09/21 05:21:32;;;;;;;;;;;;;;;12.90;59.23;100020.84;4482850;31;33957;-63
2022/09/21 05:23:59;;;;;;;;;;;;;;;12.76;60.06;100013.03;4484624;31;33396;-64
2022/09/21 05:26:27;;;;;;;;;;;;;;;12.80;59.75;100018.03;4486385;31;33783;-63
2022/09/21 05:28:54;;;;;;;;;;;;;;;13.23;59.00;100013.75;4482519;31;32545;-65
2022/09/21 05:31:36;;;;;;;;;;;;;;;13.22;58.70;100022.75;4487573;31;35040;-63
2022/09/21 05:34:16;;;;;;;;;;;;;;;13.48;57.76;100017.97;4477490;31;32968;-63
2022/09/21 05:36:46;;;;;;;;;;;;;;;13.18;58.32;100024.00;4477092;31;32849;-65
2022/09/21 05:39:14;;;;;;;;;;;;;;;13.05;59.05;100019.63;4471458;31;32556;-63
2022/09/21 05:41:41;;;;;;;;;;;;;;;13.38;58.38;100025.94;4485642;31;32898;-63
2022/09/21 05:44:13;;;;;;;;;;;;;;;13.10;59.87;100031.81;4489085;31;33329;-63
2022/09/21 05:46:41;;;;;;;;;;;;;;;12.72;59.90;100025.88;4489099;31;34065;-63
2022/09/21 05:49:13;;;;;;;;;;;;;;;13.04;59.79;100027.81;4476962;31;34812;-63
2022/09/21 05:51:50;;;;;;;;;;;;;;;13.14;58.86;100025.25;4476840;31;34592;-64
2022/09/21 05:54:19;;;;;;;;;;;;;;;12.94;59.02;100032.22;4487213;31;32377;-63
2022/09/21 05:56:52;;;;;;;;;;;;;;;12.90;59.45;100023.53;4475114;31;34553;-63
2022/09/21 05:59:32;;;;;;;;;;;;;;;13.33;58.57;100027.31;4486272;31;35201;-63
2022/09/21 06:02:03;;;;;;;;;;;;;;;12.97;59.87;100031.94;4485363;31;34299;-63
2022/09/21 06:04:31;;;;;;;;;;;;;;;13.12;59.21;100027.19;4489505;31;33160;-63
2022/09/21 06:06:58;;;;;;;;;;;;;;;12.57;60.66;100037.81;4467711;31;33734;-62
2022/09/21 06:09:26;;;;;;;;;;;;;;;13.28;58.50;100036.59;4483820;31;33906;-63
2022/09/21 06:11:54;;;;;;;;;;;;;;;12.87;59.88;100039.88;4485053;31;34940;-62
2022/09/21 06:14:24;;;;;;;;;;;;;;;13.24;59.07;100036.94;4485736;31;34269;-62
2022/09/21 06:16:51;;;;;;;;;;;;;;;13.16;59.59;100047.44;4480902;31;33157;-62
2022/09/21 06:19:19;;;;;;;;;;;;;;;13.16;59.58;100039.38;4490628;31;34297;-62
2022/09/21 06:21:46;;;;;;;;;;;;;;;13.36;59.11;100035.12;4484226;31;34459;-62
2022/09/21 06:24:14;;;;;;;;;;;;;;;13.93;57.33;100042.91;4483001;31;34458;-62
2022/09/21 06:26:41;;;;;;;;;;;;;;;14.84;55.19;100045.94;4482931;31;34143;-63
2022/09/21 06:29:09;;;;;;;;;;;;;;;13.85;56.79;100041.81;4480492;31;34116;-62
2022/09/21 06:31:36;;;;;;;;;;;;;;;13.82;57.48;100044.78;4480003;31;33374;-62
2022/09/21 06:34:03;;;;;;;;;;;;;;;13.63;58.57;100043.59;4481226;31;34831;-63
2022/09/21 06:36:31;;;;;;;;;;;;;;;13.57;58.70;100045.94;4487851;31;34211;-62
2022/09/21 06:38:58;;;;;;;;;;;;;;;14.04;57.30;100044.69;4497964;31;35201;-64
2022/09/21 06:41:25;;;;;;;;;;;;;;;12.88;61.30;100055.06;4494682;31;34467;-69
2022/09/21 06:43:54;;;;;;;;;;;;;;;13.47;59.51;100046.69;4474338;31;33042;-66
2022/09/21 06:46:21;;;;;;;;;;;;;;;12.85;61.93;100051.75;4488049;31;35364;-62
2022/09/21 06:48:49;;;;;;;;;;;;;;;13.18;60.98;100050.87;4491942;31;34203;-62
2022/09/21 06:51:16;;;;;;;;;;;;;;;13.33;60.46;100051.50;4489840;31;33826;-61
2022/09/21 06:53:43;;;;;;;;;;;;;;;13.17;61.38;100062.62;4488322;31;32772;-62
2022/09/21 06:56:11;;;;;;;;;;;;;;;13.12;61.07;100060.28;4485184;31;34912;-61
2022/09/21 06:58:38;;;;;;;;;;;;;;;12.82;62.44;100071.66;4484876;31;33120;-62
2022/09/21 07:01:06;;;;;;;;;;;;;;;12.92;61.99;100061.88;4485265;31;34335;-61
2022/09/21 07:03:34;;;;;;;;;;;;;;;13.51;60.18;100063.44;4484804;31;34206;-61
2022/09/21 07:06:01;;;;;;;;;;;;;;;13.05;61.97;100069.81;4486542;31;34327;-61
2022/09/21 07:08:28;;;;;;;;;;;;;;;13.27;60.60;100074.37;4495791;31;34103;-62
2022/09/21 07:11:16;;;;;;;;;;;;;;;13.14;61.32;100074.47;4486143;31;35286;-62
2022/09/21 07:13:44;;;;;;;;;;;;;;;13.34;61.03;100080.09;4489548;31;32135;-62
2022/09/21 07:16:12;;;;;;;;;;;;;;;13.37;60.58;100078.00;4479374;31;33898;-61
2022/09/21 07:18:39;;;;;;;;;;;;;;;13.41;60.58;100070.53;4490931;31;33921;-62
2022/09/21 07:21:10;;;;;;;;;;;;;;;13.45;60.93;100074.69;4488875;31;35058;-62
2022/09/21 07:23:38;;;;;;;;;;;;;;;13.21;61.65;100072.13;4486439;31;33394;-62
2022/09/21 07:26:07;;;;;;;;;;;;;;;13.90;59.62;100082.62;4494543;31;34301;-62
2022/09/21 07:28:34;;;;;;;;;;;;;;;14.04;58.71;100090.44;4491084;31;34320;-62
2022/09/21 07:31:09;;;;;;;;;;;;;;;13.73;59.28;100087.59;4489454;31;32707;-62
2022/09/21 07:33:37;;;;;;;;;;;;;;;14.31;58.04;100081.84;4457923;31;963240;-62
2022/09/21 07:36:08;;;;;;;;;;;;;;;14.40;57.51;100078.38;4488509;31;34235;-63
2022/09/21 07:38:38;;;;;;;;;;;;;;;14.17;59.43;100088.41;4495532;31;34148;-62
2022/09/21 07:41:06;;;;;;;;;;;;;;;14.12;59.53;100090.63;4486185;31;34106;-62
2022/09/21 07:43:33;;;;;;;;;;;;;;;14.12;59.43;100089.78;4494917;31;32184;-62
2022/09/21 07:46:01;;;;;;;;;;;;;;;14.12;58.70;100087.09;4490093;31;32770;-62
2022/09/21 07:48:29;;;;;;;;;;;;;;;13.80;60.74;100093.31;4496268;31;33930;-63
2022/09/21 07:51:06;;;;;;;;;;;;;;;13.55;61.44;100083.75;4495610;31;33490;-62
2022/09/21 07:53:37;;;;;;;;;;;;;;;13.82;60.59;100091.34;4491870;31;33271;-62
2022/09/21 07:56:05;;;;;;;;;;;;;;;14.33;57.94;100095.19;4485512;31;34935;-62
2022/09/21 08:01:20;;;;;;;;;;;;;;;14.60;57.06;100087.47;4493080;31;32822;-62
2022/09/21 08:03:51;;;;;;;;;;;;;;;14.72;56.62;100085.56;4491726;31;32246;-63
2022/09/21 08:06:18;;;;;;;;;;;;;;;14.93;55.44;100085.56;4488557;31;35305;-63
2022/09/21 08:08:46;;;;;;;;;;;;;;;15.10;55.64;100084.91;4484298;31;34224;-62
2022/09/21 08:11:15;;;;;;;;;;;;;;;14.93;56.11;100098.16;4484963;31;35209;-62
2022/09/21 08:13:42;;;;;;;;;;;;;;;14.79;57.16;100091.28;4487734;31;33189;-63
2022/09/21 08:16:10;;;;;;;;;;;;;;;14.85;56.66;100096.12;4487858;31;33908;-62
2022/09/21 08:18:38;;;;;;;;;;;;;;;14.68;56.38;100094.91;4496482;31;34059;-63
2022/09/21 08:21:06;;;;;;;;;;;;;;;15.13;56.38;100095.41;4490041;31;34006;-62
2022/09/21 08:23:33;;;;;;;;;;;;;;;15.53;54.74;100085.59;4499615;31;34664;-62
2022/09/21 08:26:02;;;;;;;;;;;;;;;15.32;55.29;100086.56;4493898;31;34440;-62
2022/09/21 08:28:30;;;;;;;;;;;;;;;15.17;55.87;100093.31;4482249;31;34021;-62
2022/09/21 08:31:01;;;;;;;;;;;;;;;14.88;56.96;100101.25;4492891;31;33718;-62
2022/09/21 08:33:28;;;;;;;;;;;;;;;15.51;55.41;100101.09;4486964;31;33449;-63
2022/09/21 08:35:57;;;;;;;;;;;;;;;15.66;54.74;100085.34;4498328;31;35249;-63
2022/09/21 08:38:24;;;;;;;;;;;;;;;15.19;56.33;100093.19;4489449;31;34169;-63
2022/09/21 08:40:52;;;;;;;;;;;;;;;16.01;54.80;100090.25;4495168;31;32803;-62
2022/09/21 08:43:28;;;;;;;;;;;;;;;15.64;54.68;100093.59;4480025;31;34322;-63
2022/09/21 08:45:56;;;;;;;;;;;;;;;15.94;53.76;100084.56;4495281;31;35215;-63
2022/09/21 08:48:25;;;;;;;;;;;;;;;15.39;55.59;100097.66;4487283;31;33621;-63
2022/09/21 08:50:58;;;;;;;;;;;;;;;15.70;53.86;100092.25;4483139;31;34034;-63
2022/09/21 08:53:32;;;;;;;;;;;;;;;15.39;55.78;100097.66;4492419;31;32705;-66
2022/09/21 08:56:01;;;;;;;;;;;;;;;15.66;55.86;100090.75;4490864;31;34317;-66
2022/09/21 08:58:30;;;;;;;;;;;;;;;15.60;55.12;100100.25;4492565;31;34355;-66
2022/09/21 09:01:16;;;;;;;;;;;;;;;15.76;54.29;100091.66;4473658;31;34165;-63
2022/09/21 09:03:50;;;;;;;;;;;;;;;16.03;54.12;100102.63;4488150;31;32946;-63
2022/09/21 09:06:47;;;;;;;;;;;;;;;15.95;52.99;100097.06;4477932;31;34672;-63
2022/09/21 09:09:38;;;;;;;;;;;;;;;15.83;53.09;100101.78;4478697;31;32905;-63
2022/09/21 09:12:15;;;;;;;;;;;;;;;15.04;55.33;100106.16;4476170;31;35160;-62
2022/09/21 09:14:54;;;;;;;;;;;;;;;15.32;55.01;100108.13;4482984;31;32273;-63
2022/09/21 09:17:25;;;;;;;;;;;;;;;15.26;55.10;100091.66;4488037;31;33850;-63
2022/09/21 09:19:54;;;;;;;;;;;;;;;15.85;54.22;100101.59;4479890;31;34274;-62
2022/09/21 09:22:33;;;;;;;;;;;;;;;15.69;55.70;100104.00;4480489;31;33985;-63
2022/09/21 09:25:02;;;;;;;;;;;;;;;15.90;54.25;100099.34;4490237;31;33619;-63
2022/09/21 09:27:34;;;;;;;;;;;;;;;16.48;52.67;100091.25;4477984;31;34692;-62
2022/09/21 09:30:04;;;;;;;;;;;;;;;16.26;52.68;100086.16;4476015;31;34038;-63
2022/09/21 09:32:44;;;;;;;;;;;;;;;16.18;52.36;100088.69;4486305;31;33976;-62
2022/09/21 09:35:37;;;;;;;;;;;;;;;16.32;51.69;100090.97;4486300;31;34523;-62
2022/09/21 09:38:18;;;;;;;;;;;;;;;16.54;51.74;100095.22;4472090;31;33949;-63
2022/09/21 09:41:05;;;;;;;;;;;;;;;16.13;51.51;100096.38;4483034;31;34359;-62
2022/09/21 09:43:39;;;;;;;;;;;;;;;16.34;51.50;100088.13;4473925;31;34177;-63
2022/09/21 09:46:06;;;;;;;;;;;;;;;16.76;51.45;100085.97;4487733;31;33078;-63
2022/09/21 09:48:57;;;;;;;;;;;;;;;16.11;52.48;100085.72;4485964;31;33819;-63
2022/09/21 09:51:25;;;;;;;;;;;;;;;16.14;52.56;100089.97;4495090;31;34580;-63
2022/09/21 09:53:53;;;;;;;;;;;;;;;16.33;52.32;100091.84;4480959;32;34190;-63
2022/09/21 09:56:20;;;;;;;;;;;;;;;16.94;50.93;100088.75;4475363;31;33227;-63
2022/09/21 09:58:56;;;;;;;;;;;;;;;16.85;51.99;100087.78;4483457;31;32396;-63
2022/09/21 10:01:35;;;;;;;;;;;;;;;17.15;50.42;100092.09;4492848;31;35556;-63
2022/09/21 10:04:04;;;;;;;;;;;;;;;17.17;49.58;100089.25;4488375;31;34446;-63
2022/09/21 10:06:32;;;;;;;;;;;;;;;17.07;49.41;100083.88;4486867;31;34410;-63
2022/09/21 10:08:59;;;;;;;;;;;;;;;17.23;49.54;100083.22;4493967;31;33954;-63
2022/09/21 10:11:34;;;;;;;;;;;;;;;17.74;49.41;100076.41;4501971;31;34163;-64
2022/09/21 10:14:13;;;;;;;;;;;;;;;17.14;48.83;100076.88;4488456;31;34341;-64
2022/09/21 10:16:41;;;;;;;;;;;;;;;17.63;47.63;100076.62;4474825;31;32977;-64
2022/09/21 10:19:15;;;;;;;;;;;;;;;17.62;48.19;100072.19;4476461;31;32531;-63
2022/09/21 10:21:44;;;;;;;;;;;;;;;17.57;48.66;100077.22;4485420;31;34015;-64
2022/09/21 10:24:17;;;;;;;;;;;;;;;17.24;49.72;100068.72;4484472;31;35194;-64
2022/09/21 10:26:48;;;;;;;;;;;;;;;17.79;48.23;100074.13;4496260;31;32043;-63
2022/09/21 10:29:21;;;;;;;;;;;;;;;17.61;48.78;100078.63;4484798;31;35149;-64
2022/09/21 10:32:12;;;;;;;;;;;;;;;17.64;47.86;100068.34;4489392;31;34496;-63
2022/09/21 10:34:58;;;;;;;;;;;;;;;17.71;48.15;100060.47;4483101;31;35523;-64
2022/09/21 10:37:28;;;;;;;;;;;;;;;17.92;46.80;100046.69;4485261;31;33246;-64
2022/09/21 10:39:56;;;;;;;;;;;;;;;17.60;49.64;100052.56;4485937;31;34129;-63
2022/09/21 10:42:23;;;;;;;;;;;;;;;17.86;48.76;100058.13;4489219;31;35351;-65
2022/09/21 10:45:04;;;;;;;;;;;;;;;18.19;46.57;100050.28;4491289;31;34396;-65
2022/09/21 10:47:33;;;;;;;;;;;;;;;17.95;47.37;100056.34;4474345;31;33384;-65
2022/09/21 10:50:01;;;;;;;;;;;;;;;18.10;46.16;100054.78;4473347;32;34874;-65
2022/09/21 10:52:36;;;;;;;;;;;;;;;18.00;46.79;100056.72;4473385;31;34640;-64
2022/09/21 10:55:04;;;;;;;;;;;;;;;18.50;46.65;100061.56;4481812;31;34385;-66
2022/09/21 10:57:31;;;;;;;;;;;;;;;18.91;45.84;100049.16;4476924;31;32215;-65
2022/09/21 11:00:34;;;;;;;;;;;;;;;18.50;45.63;100053.44;4466620;31;33288;-65
2022/09/21 11:03:04;;;;;;;;;;;;;;;17.74;45.32;100049.31;4452999;31;33420;-64
2022/09/21 11:05:37;;;;;;;;;;;;;;;18.00;45.61;100041.31;4497379;31;33583;-65
2022/09/21 11:08:08;;;;;;;;;;;;;;;18.41;45.85;100046.25;4477897;31;33002;-65
2022/09/21 11:10:42;;;;;;;;;;;;;;;18.60;46.39;100044.19;4482152;32;34945;-65
2022/09/21 11:13:16;;;;;;;;;;;;;;;18.82;45.71;100050.13;4491458;31;35519;-64
2022/09/21 11:15:51;;;;;;;;;;;;;;;18.27;46.05;100048.50;4486608;31;32738;-65
2022/09/21 11:18:21;;;;;;;;;;;;;;;18.65;45.10;100040.13;4477018;32;32283;-64
2022/09/21 11:20:50;;;;;;;;;;;;;;;18.99;44.95;100040.19;4487732;31;34313;-65
2022/09/21 11:23:17;;;;;;;;;;;;;;;19.16;43.59;100036.53;4471855;31;34097;-63
2022/09/21 11:26:03;;;;;;;;;;;;;;;19.42;42.64;100041.91;4486766;31;33171;-63
2022/09/21 11:28:39;;;;;;;;;;;;;;;19.16;43.29;100046.53;4484948;31;33358;-63
2022/09/21 11:31:22;;;;;;;;;;;;;;;18.69;43.15;100033.41;4471750;31;34163;-64
2022/09/21 11:34:09;;;;;;;;;;;;;;;19.05;42.04;100039.56;4485764;31;32814;-64
2022/09/21 11:36:37;;;;;;;;;;;;;;;18.98;40.25;100039.34;4489016;31;35323;-64
2022/09/21 11:39:31;;;;;;;;;;;;;;;18.98;39.96;100033.94;4475680;31;31989;-64
2022/09/21 11:41:59;;;;;;;;;;;;;;;19.10;40.62;100026.38;4460060;31;34041;-64
2022/09/21 11:44:26;;;;;;;;;;;;;;;19.15;40.59;100036.72;4484512;31;34121;-64
2022/09/21 11:46:58;;;;;;;;;;;;;;;18.82;40.55;100023.84;4488083;31;34709;-64
2022/09/21 11:49:28;;;;;;;;;;;;;;;19.55;40.48;100020.59;4482949;31;34261;-64
2022/09/21 11:52:14;;;;;;;;;;;;;;;19.55;41.54;100017.88;4484934;31;33477;-64
2022/09/21 11:55:01;;;;;;;;;;;;;;;19.15;41.92;100023.16;4492629;31;34659;-64
2022/09/21 11:57:37;;;;;;;;;;;;;;;18.54;42.07;100015.00;4487394;31;34456;-63
2022/09/21 12:00:10;;;;;;;;;;;;;;;18.99;41.25;100019.34;4481554;31;32076;-63
2022/09/21 12:02:49;;;;;;;;;;;;;;;18.19;42.16;100015.91;4478630;31;32908;-63
2022/09/21 12:05:32;;;;;;;;;;;;;;;18.46;42.64;100005.94;4470781;31;32702;-63
2022/09/21 12:08:03;;;;;;;;;;;;;;;18.80;43.42;100001.44;4473433;31;34192;-63
2022/09/21 12:10:49;;;;;;;;;;;;;;;18.05;43.85;100002.94;4485723;31;33636;-63
2022/09/21 12:13:19;;;;;;;;;;;;;;;17.95;44.06;100010.31;4489947;31;34157;-63
2022/09/21 12:15:54;;;;;;;;;;;;;;;18.01;44.06;100012.38;4485384;31;32713;-63
2022/09/21 12:18:26;;;;;;;;;;;;;;;18.10;44.22;100006.87;4475276;32;32454;-63
2022/09/21 12:21:13;;;;;;;;;;;;;;;18.70;42.67;100000.69;4479090;31;32891;-63
2022/09/21 12:23:42;;;;;;;;;;;;;;;18.92;42.46;99996.59;4485794;31;33907;-63
2022/09/21 12:26:11;;;;;;;;;;;;;;;19.05;41.49;99991.56;4492761;31;34217;-63
2022/09/21 12:28:39;;;;;;;;;;;;;;;18.82;42.39;99999.44;4484283;31;34065;-62
2022/09/21 12:31:28;;;;;;;;;;;;;;;18.68;42.47;99986.44;4471766;31;31800;-62
2022/09/21 12:33:56;;;;;;;;;;;;;;;18.89;41.83;99985.22;4488255;31;34657;-63
2022/09/21 12:36:24;;;;;;;;;;;;;;;18.77;41.69;99988.22;4480928;31;34284;-63
2022/09/21 12:38:58;;;;;;;;;;;;;;;18.63;42.08;99986.09;4488757;31;35455;-63
2022/09/21 12:41:28;;;;;;;;;;;;;;;18.73;41.66;99992.25;4490780;31;33452;-63
2022/09/21 12:43:59;;;;;;;;;;;;;;;18.83;40.71;99987.56;4476472;31;32868;-63
2022/09/21 12:46:26;;;;;;;;;;;;;;;18.04;42.46;99991.28;4493145;31;34207;-63
2022/09/21 12:48:54;;;;;;;;;;;;;;;18.24;42.00;99996.50;4493620;31;34371;-63
2022/09/21 12:51:28;;;;;;;;;;;;;;;17.77;41.06;99999.47;4476139;31;32963;-62
2022/09/21 12:53:57;;;;;;;;;;;;;;;17.74;42.10;100003.31;4466856;31;33802;-63
2022/09/21 12:56:34;;;;;;;;;;;;;;;17.42;43.87;99996.56;4488889;31;35488;-63
2022/09/21 12:59:08;;;;;;;;;;;;;;;18.11;42.63;99995.03;4487289;31;33516;-63
2022/09/21 13:01:46;;;;;;;;;;;;;;;18.18;42.08;100002.56;4486190;31;33146;-63
2022/09/21 13:04:26;;;;;;;;;;;;;;;17.85;41.64;99989.59;4465862;31;33212;-63
2022/09/21 13:07:00;;;;;;;;;;;;;;;18.83;40.07;99984.84;4470490;31;35072;-63